City Of Port Allen — WDD9053 — position and weather

sailwx.info

Track history (hours):
 
Tides and Currents Weather Stations Pressure Air Temp Water Temp Dewpoint Dewpoint Depression Visibility Wind Speed Wind Dir Waves Ship Positions

City Of Port Allen

Owner: Ingram Barge Company LLC, Nashville, TN. More information available from US FCC via Universal Licensing System and Coast Guard Vessel Documentation Center.

Last reported at 2018-Jun-18 22:51 UTC. Time now 2018-Jun-19 10:42 UTC.
Position N 29°51' W 091°54'.

Length 23 m; draft 2.3 m.

Type: Towing. MMSI: 367306270.

Date/timePositionNaut miles runAvg speedWind from/ knotsBaromVisibWave heightAir tempDewpointWater temp
2018-Jun-18 22:51N 29°51' W 091°54'2 5.1
2018-Jun-18 22:30N 29°51' W 091°56'2 5.0
2018-Jun-18 22:00N 29°50' W 091°59'3 5.3
2018-Jun-18 21:30N 29°49' W 092°01'3 5.1
2018-Jun-18 21:00N 29°48' W 092°04'3 5.0
2018-Jun-18 20:30N 29°47' W 092°07'2 4.3
2018-Jun-18 20:00N 29°47' W 092°09'0 0.1
2018-Jun-18 19:30N 29°47' W 092°09'0 0.9
2018-Jun-18 19:00N 29°47' W 092°10'2 3.5
2018-Jun-18 18:30N 29°47' W 092°12'1 1.4
2018-Jun-18 17:59N 29°47' W 092°12'1 1.4
2018-Jun-18 17:30N 29°47' W 092°13'1 2.2
2018-Jun-18 17:00N 29°48' W 092°14'0 0.0
2018-Jun-18 16:26N 29°48' W 092°14'0 0.0
2018-Jun-18 16:00N 29°48' W 092°14'0 0.0
2018-Jun-18 15:30N 29°48' W 092°14'0 0.2
2018-Jun-18 15:00N 29°48' W 092°14'0 0.6
2018-Jun-18 14:30N 29°48' W 092°15'0 0.5
2018-Jun-18 14:00N 29°48' W 092°15'1 1.7
2018-Jun-18 13:30N 29°49' W 092°16'0 0.0
2018-Jun-18 13:00N 29°49' W 092°16'0 0.0
2018-Jun-18 12:30N 29°49' W 092°16'0 0.6
2018-Jun-18 12:00N 29°49' W 092°16'0 0.0
2018-Jun-18 11:30N 29°49' W 092°16'0 0.3
2018-Jun-18 11:00N 29°49' W 092°16'0 0.7
2018-Jun-18 10:30N 29°49' W 092°17'1 2.3
2018-Jun-18 09:59N 29°50' W 092°18'2 3.2
2018-Jun-18 09:30N 29°50' W 092°19'2 3.0
2018-Jun-18 08:59N 29°51' W 092°21'3 2.5
2018-Jun-18 07:44N 29°53' W 092°24'1 3.2
2018-Jun-18 07:29N 29°53' W 092°25'35 3.3
2018-Jun-17 21:08N 29°56' W 093°04'2 3.9
2018-Jun-17 20:38N 29°56' W 093°07'0 3.5
2018-Jun-17 20:30N 29°56' W 093°07'2 3.3
2018-Jun-17 20:00N 29°56' W 093°09'2 3.7
2018-Jun-17 19:30N 29°57' W 093°11'2 3.9
2018-Jun-17 19:00N 29°59' W 093°12'2 3.7
2018-Jun-17 18:30N 30°00' W 093°13'2 3.5
2018-Jun-17 18:00N 30°02' W 093°14'2 3.6
2018-Jun-17 17:30N 30°03' W 093°16'2 3.7
2018-Jun-17 17:00N 30°05' W 093°17'1 2.0
2018-Jun-17 16:30N 30°05' W 093°18'1 1.8
2018-Jun-17 16:00N 30°06' W 093°18'0 0.1
2018-Jun-17 15:30N 30°06' W 093°18'0 0.0
2018-Jun-17 15:00N 30°06' W 093°18'0 0.1
2018-Jun-17 14:30N 30°06' W 093°18'0 0.0
2018-Jun-17 14:00N 30°06' W 093°18'0 0.0
2018-Jun-17 13:30N 30°06' W 093°18'0 0.0
2018-Jun-17 13:00N 30°06' W 093°18'0 0.0
2018-Jun-17 12:30N 30°06' W 093°18'0 0.0
2018-Jun-17 12:00N 30°06' W 093°18'1 1.2
2018-Jun-17 11:30N 30°06' W 093°19'2 4.2
2018-Jun-17 11:00N 30°04' W 093°20'2 3.1
2018-Jun-17 10:30N 30°04' W 093°22'0 0.4
2018-Jun-17 10:01N 30°04' W 093°22'0 0.1
2018-Jun-17 09:31N 30°04' W 093°22'0 0.1
2018-Jun-17 09:00N 30°04' W 093°22'0 0.0
2018-Jun-17 08:30N 30°04' W 093°22'0 0.0
2018-Jun-17 08:00N 30°04' W 093°22'0 0.0
2018-Jun-17 07:26N 30°04' W 093°22'0 0.0
2018-Jun-17 07:00N 30°04' W 093°22'0 0.0
2018-Jun-17 06:30N 30°04' W 093°22'0 0.0
2018-Jun-17 06:00N 30°04' W 093°22'0 0.0
2018-Jun-17 05:30N 30°04' W 093°22'0 0.0
2018-Jun-17 04:58N 30°04' W 093°22'0 0.0
2018-Jun-17 04:30N 30°04' W 093°22'0 0.0
2018-Jun-17 03:57N 30°04' W 093°22'0 0.0
2018-Jun-17 03:30N 30°04' W 093°22'0 0.0
2018-Jun-17 03:00N 30°04' W 093°22'0 0.0
2018-Jun-17 02:30N 30°04' W 093°22'0 0.0
2018-Jun-17 02:00N 30°04' W 093°22'0 0.0
2018-Jun-17 01:30N 30°04' W 093°22'0 0.0
2018-Jun-17 01:00N 30°04' W 093°22'0 0.0
2018-Jun-17 00:30N 30°04' W 093°22'0 0.0
2018-Jun-17 00:00N 30°04' W 093°22'0 0.0
2018-Jun-16 23:30N 30°04' W 093°22'0 0.0
2018-Jun-16 23:00N 30°04' W 093°22'0 0.0
2018-Jun-16 22:30N 30°04' W 093°22'0 0.0
2018-Jun-16 22:00N 30°04' W 093°22'0 0.0
2018-Jun-16 21:30N 30°04' W 093°22'0 0.0
2018-Jun-16 20:59N 30°04' W 093°22'0 0.0
2018-Jun-16 20:30N 30°04' W 093°22'0 0.0
2018-Jun-16 20:00N 30°04' W 093°22'0 0.0
2018-Jun-16 19:30N 30°04' W 093°22'0 0.0
2018-Jun-16 19:00N 30°04' W 093°22'0 0.0
2018-Jun-16 18:30N 30°04' W 093°22'0 0.0
2018-Jun-16 18:00N 30°04' W 093°22'0 0.0
2018-Jun-16 17:30N 30°04' W 093°22'0 0.0
2018-Jun-16 17:00N 30°04' W 093°22'0 0.0
2018-Jun-16 16:30N 30°04' W 093°22'0 0.0
2018-Jun-16 16:00N 30°04' W 093°22'0 0.0
2018-Jun-16 15:30N 30°04' W 093°22'0 0.0
2018-Jun-16 15:00N 30°04' W 093°22'0 0.2
2018-Jun-16 14:30N 30°04' W 093°22'0 0.1
2018-Jun-16 14:00N 30°04' W 093°22'0 0.6
2018-Jun-16 13:30N 30°04' W 093°22'0 0.0
2018-Jun-16 13:00N 30°04' W 093°22'0 0.0
2018-Jun-16 12:30N 30°04' W 093°22'0 0.0
2018-Jun-16 12:00N 30°04' W 093°22'0 0.5
2018-Jun-16 11:30N 30°04' W 093°22'2 3.1
2018-Jun-16 11:00N 30°05' W 093°20'2 3.1
2018-Jun-16 10:30N 30°06' W 093°19'1 2.2
2018-Jun-16 10:00N 30°05' W 093°18'1 1.3
2018-Jun-16 09:30N 30°05' W 093°17'1 1.3
2018-Jun-16 09:00N 30°05' W 093°17'0 0.0
2018-Jun-16 08:30N 30°05' W 093°17'0 0.0
2018-Jun-16 08:00N 30°05' W 093°17'0 0.1
2018-Jun-16 07:30N 30°05' W 093°17'0 0.1
2018-Jun-16 07:00N 30°05' W 093°17'0 0.1
2018-Jun-16 06:30N 30°05' W 093°17'0 0.1
2018-Jun-16 05:59N 30°05' W 093°17'0 0.1
2018-Jun-16 05:30N 30°05' W 093°17'0 0.0
2018-Jun-16 05:00N 30°05' W 093°17'0 0.1
2018-Jun-16 04:30N 30°05' W 093°17'0 0.3
2018-Jun-16 04:00N 30°05' W 093°17'1 1.6
2018-Jun-16 03:30N 30°04' W 093°16'1 2.2
2018-Jun-16 03:00N 30°03' W 093°16'0 0.7
2018-Jun-16 02:30N 30°02' W 093°16'1 1.1
2018-Jun-16 02:00N 30°02' W 093°15'1 1.7
2018-Jun-16 01:30N 30°02' W 093°14'0 0.0
2018-Jun-16 01:00N 30°02' W 093°14'0 0.0
2018-Jun-16 00:30N 30°02' W 093°14'0 0.0
2018-Jun-16 00:00N 30°02' W 093°14'0 0.0
2018-Jun-15 23:30N 30°02' W 093°14'0 0.0
2018-Jun-15 23:00N 30°02' W 093°14'0 0.0
2018-Jun-15 22:30N 30°02' W 093°14'0 0.0
2018-Jun-15 22:00N 30°02' W 093°14'0 0.0
2018-Jun-15 21:30N 30°02' W 093°14'0 0.0
2018-Jun-15 21:00N 30°02' W 093°14'0 0.0
2018-Jun-15 20:30N 30°02' W 093°14'0 0.0
2018-Jun-15 20:00N 30°02' W 093°14'0 0.0
2018-Jun-15 19:30N 30°02' W 093°14'0 0.0
2018-Jun-15 19:00N 30°02' W 093°14'0 0.0
2018-Jun-15 18:30N 30°02' W 093°14'0 0.0
2018-Jun-15 18:00N 30°02' W 093°14'0 0.0
2018-Jun-15 17:30N 30°02' W 093°14'0 0.0
2018-Jun-15 17:00N 30°02' W 093°14'0 0.3
2018-Jun-15 16:30N 30°02' W 093°14'1 2.4
2018-Jun-15 16:00N 30°00' W 093°14'1 2.1
2018-Jun-15 15:30N 29°60' W 093°13'1 1.3
2018-Jun-15 15:00N 29°59' W 093°12'1 1.4
2018-Jun-15 14:30N 29°59' W 093°12'0 0.4
2018-Jun-15 14:00N 29°58' W 093°12'0 0.2
2018-Jun-15 13:30N 29°58' W 093°12'0 0.1
2018-Jun-15 13:00N 29°58' W 093°12'0 0.2
2018-Jun-15 12:30N 29°58' W 093°12'0 0.1
2018-Jun-15 12:00N 29°58' W 093°12'0 0.2
2018-Jun-15 11:30N 29°58' W 093°12'0 0.2
2018-Jun-15 11:00N 29°58' W 093°11'0 0.4
2018-Jun-15 10:30N 29°58' W 093°11'0 0.1
2018-Jun-15 10:00N 29°58' W 093°11'0 0.5
2018-Jun-15 09:30N 29°58' W 093°11'0 0.1
2018-Jun-15 09:00N 29°58' W 093°11'0 0.0
2018-Jun-15 08:30N 29°58' W 093°11'0 0.0
2018-Jun-15 08:00N 29°58' W 093°11'0 0.0
2018-Jun-15 07:30N 29°58' W 093°11'0 0.0
2018-Jun-15 07:00N 29°58' W 093°11'0 0.0
2018-Jun-15 06:30N 29°58' W 093°11'0 0.0
2018-Jun-15 06:00N 29°58' W 093°11'0 0.0
2018-Jun-15 05:30N 29°58' W 093°11'0 0.0
2018-Jun-15 05:00N 29°58' W 093°11'0 0.0
2018-Jun-15 04:30N 29°58' W 093°11'0 0.1
2018-Jun-15 04:00N 29°58' W 093°11'0 0.0
2018-Jun-15 03:30N 29°58' W 093°11'0 0.1
2018-Jun-15 03:00N 29°58' W 093°11'0 0.0
2018-Jun-15 02:31N 29°58' W 093°11'0 0.0
2018-Jun-15 02:00N 29°58' W 093°11'0 0.0
2018-Jun-15 01:30N 29°58' W 093°11'0 0.0
2018-Jun-15 01:00N 29°58' W 093°11'0 0.1
2018-Jun-15 00:30N 29°58' W 093°11'0 0.1
2018-Jun-15 00:01N 29°58' W 093°11'0 0.1
2018-Jun-14 23:30N 29°58' W 093°11'0 0.1
2018-Jun-14 23:00N 29°58' W 093°11'0 0.1
2018-Jun-14 22:31N 29°58' W 093°11'0 0.1
2018-Jun-14 22:01N 29°58' W 093°11'0 0.1
2018-Jun-14 21:30N 29°58' W 093°11'0 0.9
2018-Jun-14 21:00N 29°57' W 093°11'0 0.1
2018-Jun-14 20:29N 29°57' W 093°11'0 0.1
2018-Jun-14 20:00N 29°57' W 093°11'0 0.3
2018-Jun-14 19:30N 29°57' W 093°11'0 0.0
2018-Jun-14 19:01N 29°57' W 093°11'1 2.5
2018-Jun-14 18:30N 29°56' W 093°10'2 3.0
2018-Jun-14 18:00N 29°56' W 093°08'2 3.3
2018-Jun-14 17:27N 29°56' W 093°06'1 2.2
2018-Jun-14 17:00N 29°56' W 093°05'1 2.5
2018-Jun-14 16:31N 29°56' W 093°03'1 2.0
2018-Jun-14 15:56N 29°56' W 093°02'0 0.1
2018-Jun-14 15:30N 29°56' W 093°02'28 1.7
2018-Jun-13 22:41N 29°54' W 092°29'0 0.0
2018-Jun-13 22:30N 29°54' W 092°29'3 1.8
2018-Jun-13 21:05N 29°53' W 092°26'0 2.6
2018-Jun-13 21:00N 29°53' W 092°26'1 2.7
2018-Jun-13 20:30N 29°53' W 092°25'2 2.7
2018-Jun-13 19:54N 29°53' W 092°23'1 2.8
2018-Jun-13 19:25N 29°52' W 092°22'0 1.2
2018-Jun-13 19:00N 29°51' W 092°22'1 2.6
2018-Jun-13 18:30N 29°51' W 092°20'1 2.5
2018-Jun-13 18:00N 29°50' W 092°19'1 2.6
2018-Jun-13 17:31N 29°50' W 092°18'1 1.9
2018-Jun-13 17:00N 29°49' W 092°17'1 2.6
2018-Jun-13 16:30N 29°48' W 092°16'1 2.6
2018-Jun-13 16:00N 29°48' W 092°14'1 2.6
2018-Jun-13 15:30N 29°47' W 092°13'1 1.2
2018-Jun-13 15:00N 29°47' W 092°12'1 2.2
2018-Jun-13 14:30N 29°47' W 092°11'1 2.1
2018-Jun-13 14:00N 29°47' W 092°10'1 2.9
2018-Jun-13 13:30N 29°47' W 092°08'1 2.7
2018-Jun-13 13:01N 29°48' W 092°07'1 2.9
2018-Jun-13 12:30N 29°48' W 092°05'1 2.7
2018-Jun-13 12:00N 29°49' W 092°04'1 2.4
2018-Jun-13 11:30N 29°49' W 092°02'1 1.8
2018-Jun-13 10:57N 29°49' W 092°01'1 2.2
2018-Jun-13 10:19N 29°50' W 091°60'1 2.4
2018-Jun-13 09:53N 29°50' W 091°59'1 2.4
2018-Jun-13 09:30N 29°50' W 091°58'53 2.2
2018-Jun-12 09:13N 29°36' W 090°59'1 2.8
2018-Jun-12 09:00N 29°36' W 090°58'1 2.8
2018-Jun-12 08:29N 29°35' W 090°57'1 2.8
2018-Jun-12 08:00N 29°34' W 090°56'1 2.8
2018-Jun-12 07:30N 29°33' W 090°55'1 2.5
2018-Jun-12 06:57N 29°33' W 090°53'1 2.7
2018-Jun-12 06:27N 29°32' W 090°52'1 1.6
2018-Jun-12 06:00N 29°32' W 090°51'1 2.4
2018-Jun-12 05:30N 29°32' W 090°50'1 2.6
2018-Jun-12 05:01N 29°32' W 090°48'1 2.5
2018-Jun-12 04:31N 29°32' W 090°47'1 2.2
2018-Jun-12 04:00N 29°33' W 090°46'1 2.9
2018-Jun-12 03:30N 29°34' W 090°45'1 2.9
2018-Jun-12 03:00N 29°35' W 090°43'2 3.2
2018-Jun-12 02:30N 29°36' W 090°43'1 2.2
2018-Jun-12 02:01N 29°37' W 090°42'2 3.2
2018-Jun-12 01:31N 29°36' W 090°40'1 2.4
2018-Jun-12 01:00N 29°35' W 090°39'1 2.2
2018-Jun-12 00:30N 29°35' W 090°38'1 2.5
2018-Jun-12 00:00N 29°35' W 090°36'1 2.3
2018-Jun-11 23:29N 29°35' W 090°35'1 1.4
2018-Jun-11 23:00N 29°34' W 090°34'1 2.6
2018-Jun-11 22:29N 29°34' W 090°33'1 2.8
2018-Jun-11 22:00N 29°34' W 090°31'2 2.9
2018-Jun-11 21:28N 29°34' W 090°29'2 2.8
2018-Jun-11 20:46N 29°33' W 090°27'6 2.3
2018-Jun-11 18:14N 29°36' W 090°22'  
Track history (hours):
 
Tides and Currents Weather Stations Pressure Air Temp Water Temp Dewpoint Dewpoint Depression Visibility Wind Speed Wind Dir Waves Ship Positions

City Of Port Allen

Owner: Ingram Barge Company LLC, Nashville, TN. More information available from US FCC via Universal Licensing System and Coast Guard Vessel Documentation Center.

Last reported at 2018-Jun-18 22:51 UTC. Time now 2018-Jun-19 10:42 UTC.
Position N 29°51' W 091°54'.

Length 23 m; draft 2.3 m.

Type: Towing. MMSI: 367306270.

Date/timePositionNaut miles runAvg speedWind from/ knotsBaromVisibWave heightAir tempDewpointWater temp
2018-Jun-18 22:51N 29°51' W 091°54'2 5.1
2018-Jun-18 22:30N 29°51' W 091°56'2 5.0
2018-Jun-18 22:00N 29°50' W 091°59'3 5.3
2018-Jun-18 21:30N 29°49' W 092°01'3 5.1
2018-Jun-18 21:00N 29°48' W 092°04'3 5.0
2018-Jun-18 20:30N 29°47' W 092°07'2 4.3
2018-Jun-18 20:00N 29°47' W 092°09'0 0.1
2018-Jun-18 19:30N 29°47' W 092°09'0 0.9
2018-Jun-18 19:00N 29°47' W 092°10'2 3.5
2018-Jun-18 18:30N 29°47' W 092°12'1 1.4
2018-Jun-18 17:59N 29°47' W 092°12'1 1.4
2018-Jun-18 17:30N 29°47' W 092°13'1 2.2
2018-Jun-18 17:00N 29°48' W 092°14'0 0.0
2018-Jun-18 16:26N 29°48' W 092°14'0 0.0
2018-Jun-18 16:00N 29°48' W 092°14'0 0.0
2018-Jun-18 15:30N 29°48' W 092°14'0 0.2
2018-Jun-18 15:00N 29°48' W 092°14'0 0.6
2018-Jun-18 14:30N 29°48' W 092°15'0 0.5
2018-Jun-18 14:00N 29°48' W 092°15'1 1.7
2018-Jun-18 13:30N 29°49' W 092°16'0 0.0
2018-Jun-18 13:00N 29°49' W 092°16'0 0.0
2018-Jun-18 12:30N 29°49' W 092°16'0 0.6
2018-Jun-18 12:00N 29°49' W 092°16'0 0.0
2018-Jun-18 11:30N 29°49' W 092°16'0 0.3
2018-Jun-18 11:00N 29°49' W 092°16'0 0.7
2018-Jun-18 10:30N 29°49' W 092°17'1 2.3
2018-Jun-18 09:59N 29°50' W 092°18'2 3.2
2018-Jun-18 09:30N 29°50' W 092°19'2 3.0
2018-Jun-18 08:59N 29°51' W 092°21'3 2.5
2018-Jun-18 07:44N 29°53' W 092°24'1 3.2
2018-Jun-18 07:29N 29°53' W 092°25'35 3.3
2018-Jun-17 21:08N 29°56' W 093°04'2 3.9
2018-Jun-17 20:38N 29°56' W 093°07'0 3.5
2018-Jun-17 20:30N 29°56' W 093°07'2 3.3
2018-Jun-17 20:00N 29°56' W 093°09'2 3.7
2018-Jun-17 19:30N 29°57' W 093°11'2 3.9
2018-Jun-17 19:00N 29°59' W 093°12'2 3.7
2018-Jun-17 18:30N 30°00' W 093°13'2 3.5
2018-Jun-17 18:00N 30°02' W 093°14'2 3.6
2018-Jun-17 17:30N 30°03' W 093°16'2 3.7
2018-Jun-17 17:00N 30°05' W 093°17'1 2.0
2018-Jun-17 16:30N 30°05' W 093°18'1 1.8
2018-Jun-17 16:00N 30°06' W 093°18'0 0.1
2018-Jun-17 15:30N 30°06' W 093°18'0 0.0
2018-Jun-17 15:00N 30°06' W 093°18'0 0.1
2018-Jun-17 14:30N 30°06' W 093°18'0 0.0
2018-Jun-17 14:00N 30°06' W 093°18'0 0.0
2018-Jun-17 13:30N 30°06' W 093°18'0 0.0
2018-Jun-17 13:00N 30°06' W 093°18'0 0.0
2018-Jun-17 12:30N 30°06' W 093°18'0 0.0
2018-Jun-17 12:00N 30°06' W 093°18'1 1.2
2018-Jun-17 11:30N 30°06' W 093°19'2 4.2
2018-Jun-17 11:00N 30°04' W 093°20'2 3.1
2018-Jun-17 10:30N 30°04' W 093°22'0 0.4
2018-Jun-17 10:01N 30°04' W 093°22'0 0.1
2018-Jun-17 09:31N 30°04' W 093°22'0 0.1
2018-Jun-17 09:00N 30°04' W 093°22'0 0.0
2018-Jun-17 08:30N 30°04' W 093°22'0 0.0
2018-Jun-17 08:00N 30°04' W 093°22'0 0.0
2018-Jun-17 07:26N 30°04' W 093°22'0 0.0
2018-Jun-17 07:00N 30°04' W 093°22'0 0.0
2018-Jun-17 06:30N 30°04' W 093°22'0 0.0
2018-Jun-17 06:00N 30°04' W 093°22'0 0.0
2018-Jun-17 05:30N 30°04' W 093°22'0 0.0
2018-Jun-17 04:58N 30°04' W 093°22'0 0.0
2018-Jun-17 04:30N 30°04' W 093°22'0 0.0
2018-Jun-17 03:57N 30°04' W 093°22'0 0.0
2018-Jun-17 03:30N 30°04' W 093°22'0 0.0
2018-Jun-17 03:00N 30°04' W 093°22'0 0.0
2018-Jun-17 02:30N 30°04' W 093°22'0 0.0
2018-Jun-17 02:00N 30°04' W 093°22'0 0.0
2018-Jun-17 01:30N 30°04' W 093°22'0 0.0
2018-Jun-17 01:00N 30°04' W 093°22'0 0.0
2018-Jun-17 00:30N 30°04' W 093°22'0 0.0
2018-Jun-17 00:00N 30°04' W 093°22'0 0.0
2018-Jun-16 23:30N 30°04' W 093°22'0 0.0
2018-Jun-16 23:00N 30°04' W 093°22'0 0.0
2018-Jun-16 22:30N 30°04' W 093°22'0 0.0
2018-Jun-16 22:00N 30°04' W 093°22'0 0.0
2018-Jun-16 21:30N 30°04' W 093°22'0 0.0
2018-Jun-16 20:59N 30°04' W 093°22'0 0.0
2018-Jun-16 20:30N 30°04' W 093°22'0 0.0
2018-Jun-16 20:00N 30°04' W 093°22'0 0.0
2018-Jun-16 19:30N 30°04' W 093°22'0 0.0
2018-Jun-16 19:00N 30°04' W 093°22'0 0.0
2018-Jun-16 18:30N 30°04' W 093°22'0 0.0
2018-Jun-16 18:00N 30°04' W 093°22'0 0.0
2018-Jun-16 17:30N 30°04' W 093°22'0 0.0
2018-Jun-16 17:00N 30°04' W 093°22'0 0.0
2018-Jun-16 16:30N 30°04' W 093°22'0 0.0
2018-Jun-16 16:00N 30°04' W 093°22'0 0.0
2018-Jun-16 15:30N 30°04' W 093°22'0 0.0
2018-Jun-16 15:00N 30°04' W 093°22'0 0.2
2018-Jun-16 14:30N 30°04' W 093°22'0 0.1
2018-Jun-16 14:00N 30°04' W 093°22'0 0.6
2018-Jun-16 13:30N 30°04' W 093°22'0 0.0
2018-Jun-16 13:00N 30°04' W 093°22'0 0.0
2018-Jun-16 12:30N 30°04' W 093°22'0 0.0
2018-Jun-16 12:00N 30°04' W 093°22'0 0.5
2018-Jun-16 11:30N 30°04' W 093°22'2 3.1
2018-Jun-16 11:00N 30°05' W 093°20'2 3.1
2018-Jun-16 10:30N 30°06' W 093°19'1 2.2
2018-Jun-16 10:00N 30°05' W 093°18'1 1.3
2018-Jun-16 09:30N 30°05' W 093°17'1 1.3
2018-Jun-16 09:00N 30°05' W 093°17'0 0.0
2018-Jun-16 08:30N 30°05' W 093°17'0 0.0
2018-Jun-16 08:00N 30°05' W 093°17'0 0.1
2018-Jun-16 07:30N 30°05' W 093°17'0 0.1
2018-Jun-16 07:00N 30°05' W 093°17'0 0.1
2018-Jun-16 06:30N 30°05' W 093°17'0 0.1
2018-Jun-16 05:59N 30°05' W 093°17'0 0.1
2018-Jun-16 05:30N 30°05' W 093°17'0 0.0
2018-Jun-16 05:00N 30°05' W 093°17'0 0.1
2018-Jun-16 04:30N 30°05' W 093°17'0 0.3
2018-Jun-16 04:00N 30°05' W 093°17'1 1.6
2018-Jun-16 03:30N 30°04' W 093°16'1 2.2
2018-Jun-16 03:00N 30°03' W 093°16'0 0.7
2018-Jun-16 02:30N 30°02' W 093°16'1 1.1
2018-Jun-16 02:00N 30°02' W 093°15'1 1.7
2018-Jun-16 01:30N 30°02' W 093°14'0 0.0
2018-Jun-16 01:00N 30°02' W 093°14'0 0.0
2018-Jun-16 00:30N 30°02' W 093°14'0 0.0
2018-Jun-16 00:00N 30°02' W 093°14'0 0.0
2018-Jun-15 23:30N 30°02' W 093°14'0 0.0
2018-Jun-15 23:00N 30°02' W 093°14'0 0.0
2018-Jun-15 22:30N 30°02' W 093°14'0 0.0
2018-Jun-15 22:00N 30°02' W 093°14'0 0.0
2018-Jun-15 21:30N 30°02' W 093°14'0 0.0
2018-Jun-15 21:00N 30°02' W 093°14'0 0.0
2018-Jun-15 20:30N 30°02' W 093°14'0 0.0
2018-Jun-15 20:00N 30°02' W 093°14'0 0.0
2018-Jun-15 19:30N 30°02' W 093°14'0 0.0
2018-Jun-15 19:00N 30°02' W 093°14'0 0.0
2018-Jun-15 18:30N 30°02' W 093°14'0 0.0
2018-Jun-15 18:00N 30°02' W 093°14'0 0.0
2018-Jun-15 17:30N 30°02' W 093°14'0 0.0
2018-Jun-15 17:00N 30°02' W 093°14'0 0.3
2018-Jun-15 16:30N 30°02' W 093°14'1 2.4
2018-Jun-15 16:00N 30°00' W 093°14'1 2.1
2018-Jun-15 15:30N 29°60' W 093°13'1 1.3
2018-Jun-15 15:00N 29°59' W 093°12'1 1.4
2018-Jun-15 14:30N 29°59' W 093°12'0 0.4
2018-Jun-15 14:00N 29°58' W 093°12'0 0.2
2018-Jun-15 13:30N 29°58' W 093°12'0 0.1
2018-Jun-15 13:00N 29°58' W 093°12'0 0.2
2018-Jun-15 12:30N 29°58' W 093°12'0 0.1
2018-Jun-15 12:00N 29°58' W 093°12'0 0.2
2018-Jun-15 11:30N 29°58' W 093°12'0 0.2
2018-Jun-15 11:00N 29°58' W 093°11'0 0.4
2018-Jun-15 10:30N 29°58' W 093°11'0 0.1
2018-Jun-15 10:00N 29°58' W 093°11'0 0.5
2018-Jun-15 09:30N 29°58' W 093°11'0 0.1
2018-Jun-15 09:00N 29°58' W 093°11'0 0.0
2018-Jun-15 08:30N 29°58' W 093°11'0 0.0
2018-Jun-15 08:00N 29°58' W 093°11'0 0.0
2018-Jun-15 07:30N 29°58' W 093°11'0 0.0
2018-Jun-15 07:00N 29°58' W 093°11'0 0.0
2018-Jun-15 06:30N 29°58' W 093°11'0 0.0
2018-Jun-15 06:00N 29°58' W 093°11'0 0.0
2018-Jun-15 05:30N 29°58' W 093°11'0 0.0
2018-Jun-15 05:00N 29°58' W 093°11'0 0.0
2018-Jun-15 04:30N 29°58' W 093°11'0 0.1
2018-Jun-15 04:00N 29°58' W 093°11'0 0.0
2018-Jun-15 03:30N 29°58' W 093°11'0 0.1
2018-Jun-15 03:00N 29°58' W 093°11'0 0.0
2018-Jun-15 02:31N 29°58' W 093°11'0 0.0
2018-Jun-15 02:00N 29°58' W 093°11'0 0.0
2018-Jun-15 01:30N 29°58' W 093°11'0 0.0
2018-Jun-15 01:00N 29°58' W 093°11'0 0.1
2018-Jun-15 00:30N 29°58' W 093°11'0 0.1
2018-Jun-15 00:01N 29°58' W 093°11'0 0.1
2018-Jun-14 23:30N 29°58' W 093°11'0 0.1
2018-Jun-14 23:00N 29°58' W 093°11'0 0.1
2018-Jun-14 22:31N 29°58' W 093°11'0 0.1
2018-Jun-14 22:01N 29°58' W 093°11'0 0.1
2018-Jun-14 21:30N 29°58' W 093°11'0 0.9
2018-Jun-14 21:00N 29°57' W 093°11'0 0.1
2018-Jun-14 20:29N 29°57' W 093°11'0 0.1
2018-Jun-14 20:00N 29°57' W 093°11'0 0.3
2018-Jun-14 19:30N 29°57' W 093°11'0 0.0
2018-Jun-14 19:01N 29°57' W 093°11'1 2.5
2018-Jun-14 18:30N 29°56' W 093°10'2 3.0
2018-Jun-14 18:00N 29°56' W 093°08'2 3.3
2018-Jun-14 17:27N 29°56' W 093°06'1 2.2
2018-Jun-14 17:00N 29°56' W 093°05'1 2.5
2018-Jun-14 16:31N 29°56' W 093°03'1 2.0
2018-Jun-14 15:56N 29°56' W 093°02'0 0.1
2018-Jun-14 15:30N 29°56' W 093°02'28 1.7
2018-Jun-13 22:41N 29°54' W 092°29'0 0.0
2018-Jun-13 22:30N 29°54' W 092°29'3 1.8
2018-Jun-13 21:05N 29°53' W 092°26'0 2.6
2018-Jun-13 21:00N 29°53' W 092°26'1 2.7
2018-Jun-13 20:30N 29°53' W 092°25'2 2.7
2018-Jun-13 19:54N 29°53' W 092°23'1 2.8
2018-Jun-13 19:25N 29°52' W 092°22'0 1.2
2018-Jun-13 19:00N 29°51' W 092°22'1 2.6
2018-Jun-13 18:30N 29°51' W 092°20'1 2.5
2018-Jun-13 18:00N 29°50' W 092°19'1 2.6
2018-Jun-13 17:31N 29°50' W 092°18'1 1.9
2018-Jun-13 17:00N 29°49' W 092°17'1 2.6
2018-Jun-13 16:30N 29°48' W 092°16'1 2.6
2018-Jun-13 16:00N 29°48' W 092°14'1 2.6
2018-Jun-13 15:30N 29°47' W 092°13'1 1.2
2018-Jun-13 15:00N 29°47' W 092°12'1 2.2
2018-Jun-13 14:30N 29°47' W 092°11'1 2.1
2018-Jun-13 14:00N 29°47' W 092°10'1 2.9
2018-Jun-13 13:30N 29°47' W 092°08'1 2.7
2018-Jun-13 13:01N 29°48' W 092°07'1 2.9
2018-Jun-13 12:30N 29°48' W 092°05'1 2.7
2018-Jun-13 12:00N 29°49' W 092°04'1 2.4
2018-Jun-13 11:30N 29°49' W 092°02'1 1.8
2018-Jun-13 10:57N 29°49' W 092°01'1 2.2
2018-Jun-13 10:19N 29°50' W 091°60'1 2.4
2018-Jun-13 09:53N 29°50' W 091°59'1 2.4
2018-Jun-13 09:30N 29°50' W 091°58'53 2.2
2018-Jun-12 09:13N 29°36' W 090°59'1 2.8
2018-Jun-12 09:00N 29°36' W 090°58'1 2.8
2018-Jun-12 08:29N 29°35' W 090°57'1 2.8
2018-Jun-12 08:00N 29°34' W 090°56'1 2.8
2018-Jun-12 07:30N 29°33' W 090°55'1 2.5
2018-Jun-12 06:57N 29°33' W 090°53'1 2.7
2018-Jun-12 06:27N 29°32' W 090°52'1 1.6
2018-Jun-12 06:00N 29°32' W 090°51'1 2.4
2018-Jun-12 05:30N 29°32' W 090°50'1 2.6
2018-Jun-12 05:01N 29°32' W 090°48'1 2.5
2018-Jun-12 04:31N 29°32' W 090°47'1 2.2
2018-Jun-12 04:00N 29°33' W 090°46'1 2.9
2018-Jun-12 03:30N 29°34' W 090°45'1 2.9
2018-Jun-12 03:00N 29°35' W 090°43'2 3.2
2018-Jun-12 02:30N 29°36' W 090°43'1 2.2
2018-Jun-12 02:01N 29°37' W 090°42'2 3.2
2018-Jun-12 01:31N 29°36' W 090°40'1 2.4
2018-Jun-12 01:00N 29°35' W 090°39'1 2.2
2018-Jun-12 00:30N 29°35' W 090°38'1 2.5
2018-Jun-12 00:00N 29°35' W 090°36'1 2.3
2018-Jun-11 23:29N 29°35' W 090°35'1 1.4
2018-Jun-11 23:00N 29°34' W 090°34'1 2.6
2018-Jun-11 22:29N 29°34' W 090°33'1 2.8
2018-Jun-11 22:00N 29°34' W 090°31'2 2.9
2018-Jun-11 21:28N 29°34' W 090°29'2 2.8
2018-Jun-11 20:46N 29°33' W 090°27'6 2.3
2018-Jun-11 18:14N 29°36' W 090°22'  

Dump ship's entire track history